sensor_id;sensor_type;location;lat;lon;timestamp;pressure;altitude;pressure_sealevel;temperature
75811;BMP280;64449;50.016;19.954;2023-05-10T00:01:39;99042.60;;;9.39
75811;BMP280;64449;50.016;19.954;2023-05-10T00:04:05;99042.33;;;9.37
75811;BMP280;64449;50.016;19.954;2023-05-10T00:06:31;99034.14;;;9.36
75811;BMP280;64449;50.016;19.954;2023-05-10T00:08:57;99032.56;;;9.36
75811;BMP280;64449;50.016;19.954;2023-05-10T00:11:23;99030.16;;;9.36
75811;BMP280;64449;50.016;19.954;2023-05-10T00:13:48;99027.24;;;9.34
75811;BMP280;64449;50.016;19.954;2023-05-10T00:16:13;99028.95;;;9.34
75811;BMP280;64449;50.016;19.954;2023-05-10T00:18:39;99027.80;;;9.34
75811;BMP280;64449;50.016;19.954;2023-05-10T00:21:05;99027.48;;;9.32
75811;BMP280;64449;50.016;19.954;2023-05-10T00:23:31;99027.25;;;9.31
75811;BMP280;64449;50.016;19.954;2023-05-10T00:25:57;99022.23;;;9.29
75811;BMP280;64449;50.016;19.954;2023-05-10T00:28:22;99023.69;;;9.28
75811;BMP280;64449;50.016;19.954;2023-05-10T00:30:48;99021.91;;;9.27
75811;BMP280;64449;50.016;19.954;2023-05-10T00:33:13;99017.66;;;9.25
75811;BMP280;64449;50.016;19.954;2023-05-10T00:35:39;99018.73;;;9.23
75811;BMP280;64449;50.016;19.954;2023-05-10T00:38:04;99017.25;;;9.22
75811;BMP280;64449;50.016;19.954;2023-05-10T00:40:30;99020.07;;;9.21
75811;BMP280;64449;50.016;19.954;2023-05-10T00:42:57;99017.02;;;9.18
75811;BMP280;64449;50.016;19.954;2023-05-10T00:45:23;99013.86;;;9.16
75811;BMP280;64449;50.016;19.954;2023-05-10T00:47:49;99019.73;;;9.14
75811;BMP280;64449;50.016;19.954;2023-05-10T00:50:15;99017.51;;;9.11
75811;BMP280;64449;50.016;19.954;2023-05-10T00:52:41;99014.44;;;9.08
75811;BMP280;64449;50.016;19.954;2023-05-10T00:55:09;99015.66;;;9.05
75811;BMP280;64449;50.016;19.954;2023-05-10T00:57:35;99013.05;;;9.02
75811;BMP280;64449;50.016;19.954;2023-05-10T01:00:01;99011.70;;;9.01
75811;BMP280;64449;50.016;19.954;2023-05-10T01:02:28;99010.70;;;8.98
75811;BMP280;64449;50.016;19.954;2023-05-10T01:04:53;99013.59;;;8.94
75811;BMP280;64449;50.016;19.954;2023-05-10T01:07:19;99011.30;;;8.90
75811;BMP280;64449;50.016;19.954;2023-05-10T01:09:45;99010.65;;;8.86
75811;BMP280;64449;50.016;19.954;2023-05-10T01:12:11;99006.05;;;8.82
75811;BMP280;64449;50.016;19.954;2023-05-10T01:14:37;99005.42;;;8.79
75811;BMP280;64449;50.016;19.954;2023-05-10T01:17:03;99003.52;;;8.77
75811;BMP280;64449;50.016;19.954;2023-05-10T01:19:31;99001.57;;;8.76
75811;BMP280;64449;50.016;19.954;2023-05-10T01:25:23;99001.33;;;8.68
75811;BMP280;64449;50.016;19.954;2023-05-10T01:30:53;99001.50;;;8.59
75811;BMP280;64449;50.016;19.954;2023-05-10T01:33:55;99001.45;;;8.55
75811;BMP280;64449;50.016;19.954;2023-05-10T01:36:42;98999.96;;;8.50
75811;BMP280;64449;50.016;19.954;2023-05-10T01:39:14;98998.84;;;8.46
75811;BMP280;64449;50.016;19.954;2023-05-10T01:45:02;98994.48;;;8.39
75811;BMP280;64449;50.016;19.954;2023-05-10T01:47:38;98991.92;;;8.37
75811;BMP280;64449;50.016;19.954;2023-05-10T01:50:10;98989.11;;;8.33
75811;BMP280;64449;50.016;19.954;2023-05-10T01:52:47;98991.29;;;8.30
75811;BMP280;64449;50.016;19.954;2023-05-10T01:55:16;98990.18;;;8.27
75811;BMP280;64449;50.016;19.954;2023-05-10T01:57:44;98986.43;;;8.23
75811;BMP280;64449;50.016;19.954;2023-05-10T02:00:13;98986.77;;;8.21
75811;BMP280;64449;50.016;19.954;2023-05-10T02:02:40;98983.33;;;8.20
75811;BMP280;64449;50.016;19.954;2023-05-10T02:05:08;98979.30;;;8.20
75811;BMP280;64449;50.016;19.954;2023-05-10T02:07:36;98976.65;;;8.17
75811;BMP280;64449;50.016;19.954;2023-05-10T02:10:04;98973.51;;;8.15
75811;BMP280;64449;50.016;19.954;2023-05-10T02:12:31;98972.27;;;8.12
75811;BMP280;64449;50.016;19.954;2023-05-10T02:15:02;98971.65;;;8.08
75811;BMP280;64449;50.016;19.954;2023-05-10T02:17:31;98970.91;;;8.06
75811;BMP280;64449;50.016;19.954;2023-05-10T02:19:59;98968.61;;;8.02
75811;BMP280;64449;50.016;19.954;2023-05-10T02:22:27;98963.46;;;7.98
75811;BMP280;64449;50.016;19.954;2023-05-10T02:24:58;98966.05;;;7.95
75811;BMP280;64449;50.016;19.954;2023-05-10T02:27:25;98961.23;;;7.92
75811;BMP280;64449;50.016;19.954;2023-05-10T02:29:53;98961.67;;;7.90
75811;BMP280;64449;50.016;19.954;2023-05-10T02:32:21;98965.46;;;7.89
75811;BMP280;64449;50.016;19.954;2023-05-10T02:34:48;98966.81;;;7.86
75811;BMP280;64449;50.016;19.954;2023-05-10T02:37:19;98963.46;;;7.84
75811;BMP280;64449;50.016;19.954;2023-05-10T02:39:46;98958.90;;;7.82
75811;BMP280;64449;50.016;19.954;2023-05-10T02:42:15;98958.17;;;7.82
75811;BMP280;64449;50.016;19.954;2023-05-10T02:44:42;98954.92;;;7.82
75811;BMP280;64449;50.016;19.954;2023-05-10T02:47:08;98954.46;;;7.82
75811;BMP280;64449;50.016;19.954;2023-05-10T02:49:34;98954.62;;;7.79
75811;BMP280;64449;50.016;19.954;2023-05-10T02:52:01;98958.64;;;7.76
75811;BMP280;64449;50.016;19.954;2023-05-10T02:54:33;98958.27;;;7.74
75811;BMP280;64449;50.016;19.954;2023-05-10T02:57:02;98959.34;;;7.73
75811;BMP280;64449;50.016;19.954;2023-05-10T02:59:29;98957.98;;;7.72
75811;BMP280;64449;50.016;19.954;2023-05-10T03:01:54;98958.92;;;7.70
75811;BMP280;64449;50.016;19.954;2023-05-10T03:04:19;98955.32;;;7.69
75811;BMP280;64449;50.016;19.954;2023-05-10T03:06:46;98958.31;;;7.69
75811;BMP280;64449;50.016;19.954;2023-05-10T03:09:12;98956.50;;;7.70
75811;BMP280;64449;50.016;19.954;2023-05-10T03:11:54;98958.14;;;7.70
75811;BMP280;64449;50.016;19.954;2023-05-10T03:14:45;98957.83;;;7.70
75811;BMP280;64449;50.016;19.954;2023-05-10T03:18:01;98958.77;;;7.69
75811;BMP280;64449;50.016;19.954;2023-05-10T03:23:21;98960.86;;;7.69
75811;BMP280;64449;50.016;19.954;2023-05-10T03:25:44;98965.84;;;7.67
75811;BMP280;64449;50.016;19.954;2023-05-10T03:28:12;98968.55;;;7.68
75811;BMP280;64449;50.016;19.954;2023-05-10T03:30:39;98966.92;;;7.69
75811;BMP280;64449;50.016;19.954;2023-05-10T03:33:06;98966.09;;;7.69
75811;BMP280;64449;50.016;19.954;2023-05-10T03:35:31;98959.03;;;7.69
75811;BMP280;64449;50.016;19.954;2023-05-10T03:37:57;98955.11;;;7.70
75811;BMP280;64449;50.016;19.954;2023-05-10T03:40:23;98957.61;;;7.71
75811;BMP280;64449;50.016;19.954;2023-05-10T03:42:49;98956.27;;;7.72
75811;BMP280;64449;50.016;19.954;2023-05-10T03:45:14;98956.96;;;7.73
75811;BMP280;64449;50.016;19.954;2023-05-10T03:47:40;98957.30;;;7.75
75811;BMP280;64449;50.016;19.954;2023-05-10T03:50:06;98957.98;;;7.77
75811;BMP280;64449;50.016;19.954;2023-05-10T03:52:32;98955.39;;;7.79
75811;BMP280;64449;50.016;19.954;2023-05-10T03:54:57;98957.16;;;7.82
75811;BMP280;64449;50.016;19.954;2023-05-10T03:57:23;98956.68;;;7.85
75811;BMP280;64449;50.016;19.954;2023-05-10T03:59:48;98957.56;;;7.88
75811;BMP280;64449;50.016;19.954;2023-05-10T04:02:13;98956.82;;;7.90
75811;BMP280;64449;50.016;19.954;2023-05-10T04:04:39;98959.88;;;7.94
75811;BMP280;64449;50.016;19.954;2023-05-10T04:07:05;98962.45;;;7.97
75811;BMP280;64449;50.016;19.954;2023-05-10T04:09:30;98966.20;;;8.02
75811;BMP280;64449;50.016;19.954;2023-05-10T04:11:56;98967.38;;;8.06
75811;BMP280;64449;50.016;19.954;2023-05-10T04:14:23;98967.33;;;8.10
75811;BMP280;64449;50.016;19.954;2023-05-10T04:16:48;98968.08;;;8.13
75811;BMP280;64449;50.016;19.954;2023-05-10T04:19:14;98967.48;;;8.18
75811;BMP280;64449;50.016;19.954;2023-05-10T04:21:39;98968.45;;;8.22
75811;BMP280;64449;50.016;19.954;2023-05-10T04:24:05;98966.30;;;8.26
75811;BMP280;64449;50.016;19.954;2023-05-10T04:26:30;98968.80;;;8.31
75811;BMP280;64449;50.016;19.954;2023-05-10T04:28:56;98969.39;;;8.35
75811;BMP280;64449;50.016;19.954;2023-05-10T04:31:21;98969.98;;;8.40
75811;BMP280;64449;50.016;19.954;2023-05-10T04:33:47;98969.06;;;8.43
75811;BMP280;64449;50.016;19.954;2023-05-10T04:36:12;98967.71;;;8.50
75811;BMP280;64449;50.016;19.954;2023-05-10T04:38:37;98968.77;;;8.56
75811;BMP280;64449;50.016;19.954;2023-05-10T04:41:04;98970.31;;;8.64
75811;BMP280;64449;50.016;19.954;2023-05-10T04:43:30;98970.47;;;8.71
75811;BMP280;64449;50.016;19.954;2023-05-10T04:45:59;98971.67;;;8.78
75811;BMP280;64449;50.016;19.954;2023-05-10T04:48:24;98972.15;;;8.86
75811;BMP280;64449;50.016;19.954;2023-05-10T04:50:49;98975.39;;;8.91
75811;BMP280;64449;50.016;19.954;2023-05-10T04:53:15;98972.11;;;8.95
75811;BMP280;64449;50.016;19.954;2023-05-10T04:55:40;98971.05;;;9.01
75811;BMP280;64449;50.016;19.954;2023-05-10T04:58:06;98973.64;;;9.06
75811;BMP280;64449;50.016;19.954;2023-05-10T05:00:32;98967.05;;;9.13
75811;BMP280;64449;50.016;19.954;2023-05-10T05:02:58;98965.23;;;9.20
75811;BMP280;64449;50.016;19.954;2023-05-10T05:05:23;98966.92;;;9.26
75811;BMP280;64449;50.016;19.954;2023-05-10T05:07:49;98967.36;;;9.32
75811;BMP280;64449;50.016;19.954;2023-05-10T05:10:14;98966.05;;;9.39
75811;BMP280;64449;50.016;19.954;2023-05-10T05:12:40;98966.19;;;9.47
75811;BMP280;64449;50.016;19.954;2023-05-10T05:15:06;98965.14;;;9.53
75811;BMP280;64449;50.016;19.954;2023-05-10T05:17:33;98965.52;;;9.60
75811;BMP280;64449;50.016;19.954;2023-05-10T05:19:58;98962.30;;;9.67
75811;BMP280;64449;50.016;19.954;2023-05-10T05:22:24;98964.25;;;9.76
75811;BMP280;64449;50.016;19.954;2023-05-10T05:24:56;98957.46;;;9.83
75811;BMP280;64449;50.016;19.954;2023-05-10T05:27:22;98957.27;;;9.91
75811;BMP280;64449;50.016;19.954;2023-05-10T05:29:56;98958.80;;;9.97
75811;BMP280;64449;50.016;19.954;2023-05-10T05:32:22;98959.04;;;10.07
75811;BMP280;64449;50.016;19.954;2023-05-10T05:34:47;98956.98;;;10.15
75811;BMP280;64449;50.016;19.954;2023-05-10T05:37:17;98954.83;;;10.23
75811;BMP280;64449;50.016;19.954;2023-05-10T05:39:43;98954.45;;;10.32
75811;BMP280;64449;50.016;19.954;2023-05-10T05:42:10;98955.50;;;10.41
75811;BMP280;64449;50.016;19.954;2023-05-10T05:44:35;98955.14;;;10.50
75811;BMP280;64449;50.016;19.954;2023-05-10T05:47:01;98955.70;;;10.59
75811;BMP280;64449;50.016;19.954;2023-05-10T05:49:27;98961.87;;;10.66
75811;BMP280;64449;50.016;19.954;2023-05-10T05:51:53;98962.66;;;10.73
75811;BMP280;64449;50.016;19.954;2023-05-10T05:54:18;98965.02;;;10.81
75811;BMP280;64449;50.016;19.954;2023-05-10T05:56:44;98959.11;;;10.90
75811;BMP280;64449;50.016;19.954;2023-05-10T05:59:10;98958.08;;;10.99
75811;BMP280;64449;50.016;19.954;2023-05-10T06:01:36;98960.49;;;11.08
75811;BMP280;64449;50.016;19.954;2023-05-10T06:04:01;98960.89;;;11.18
75811;BMP280;64449;50.016;19.954;2023-05-10T06:06:27;98964.80;;;11.28
75811;BMP280;64449;50.016;19.954;2023-05-10T06:08:52;98969.33;;;11.37
75811;BMP280;64449;50.016;19.954;2023-05-10T06:11:18;98969.30;;;11.45
75811;BMP280;64449;50.016;19.954;2023-05-10T06:13:43;98963.87;;;11.54
75811;BMP280;64449;50.016;19.954;2023-05-10T06:16:09;98965.10;;;11.62
75811;BMP280;64449;50.016;19.954;2023-05-10T06:18:35;98967.30;;;11.70
75811;BMP280;64449;50.016;19.954;2023-05-10T06:21:00;98964.41;;;11.78
75811;BMP280;64449;50.016;19.954;2023-05-10T06:23:25;98964.06;;;11.88
75811;BMP280;64449;50.016;19.954;2023-05-10T06:25:51;98959.98;;;11.98
75811;BMP280;64449;50.016;19.954;2023-05-10T06:28:17;98963.08;;;12.08
75811;BMP280;64449;50.016;19.954;2023-05-10T06:30:43;98967.33;;;12.18
75811;BMP280;64449;50.016;19.954;2023-05-10T06:33:08;98964.46;;;12.26
75811;BMP280;64449;50.016;19.954;2023-05-10T06:35:33;98964.16;;;12.37
75811;BMP280;64449;50.016;19.954;2023-05-10T06:37:59;98967.00;;;12.47
75811;BMP280;64449;50.016;19.954;2023-05-10T06:40:24;98966.83;;;12.55
75811;BMP280;64449;50.016;19.954;2023-05-10T06:42:50;98966.02;;;12.61
75811;BMP280;64449;50.016;19.954;2023-05-10T06:45:16;98965.48;;;12.68
75811;BMP280;64449;50.016;19.954;2023-05-10T06:47:41;98966.74;;;12.79
75811;BMP280;64449;50.016;19.954;2023-05-10T06:50:10;98966.20;;;12.90
75811;BMP280;64449;50.016;19.954;2023-05-10T06:52:39;98964.55;;;13.02
75811;BMP280;64449;50.016;19.954;2023-05-10T06:55:06;98964.97;;;13.14
75811;BMP280;64449;50.016;19.954;2023-05-10T06:57:31;98965.66;;;13.25
75811;BMP280;64449;50.016;19.954;2023-05-10T06:59:58;98960.23;;;13.38
75811;BMP280;64449;50.016;19.954;2023-05-10T07:02:23;98960.73;;;13.51
75811;BMP280;64449;50.016;19.954;2023-05-10T07:04:49;98959.05;;;13.65
75811;BMP280;64449;50.016;19.954;2023-05-10T07:07:15;98960.16;;;13.79
75811;BMP280;64449;50.016;19.954;2023-05-10T07:09:40;98961.42;;;13.94
75811;BMP280;64449;50.016;19.954;2023-05-10T07:12:06;98956.01;;;14.06
75811;BMP280;64449;50.016;19.954;2023-05-10T07:14:31;98956.96;;;14.21
75811;BMP280;64449;50.016;19.954;2023-05-10T07:16:57;98955.35;;;14.35
75811;BMP280;64449;50.016;19.954;2023-05-10T07:19:22;98956.60;;;14.49
75811;BMP280;64449;50.016;19.954;2023-05-10T07:21:48;98957.48;;;14.62
75811;BMP280;64449;50.016;19.954;2023-05-10T07:24:13;98956.04;;;14.75
75811;BMP280;64449;50.016;19.954;2023-05-10T07:26:38;98957.70;;;14.86
75811;BMP280;64449;50.016;19.954;2023-05-10T07:29:04;98960.60;;;14.97
75811;BMP280;64449;50.016;19.954;2023-05-10T07:31:30;98957.52;;;15.09
75811;BMP280;64449;50.016;19.954;2023-05-10T07:33:55;98956.02;;;15.18
75811;BMP280;64449;50.016;19.954;2023-05-10T07:36:21;98955.41;;;15.28
75811;BMP280;64449;50.016;19.954;2023-05-10T07:38:46;98949.23;;;15.40
75811;BMP280;64449;50.016;19.954;2023-05-10T07:41:12;98951.00;;;15.53
75811;BMP280;64449;50.016;19.954;2023-05-10T07:43:37;98954.48;;;15.65
75811;BMP280;64449;50.016;19.954;2023-05-10T07:46:03;98950.58;;;15.79
75811;BMP280;64449;50.016;19.954;2023-05-10T07:48:28;98949.47;;;15.94
75811;BMP280;64449;50.016;19.954;2023-05-10T07:50:54;98939.88;;;16.06
75811;BMP280;64449;50.016;19.954;2023-05-10T07:53:19;98939.56;;;16.23
75811;BMP280;64449;50.016;19.954;2023-05-10T07:55:50;98939.50;;;16.36
75811;BMP280;64449;50.016;19.954;2023-05-10T07:58:15;98938.66;;;16.47
75811;BMP280;64449;50.016;19.954;2023-05-10T08:00:41;98937.98;;;16.58
75811;BMP280;64449;50.016;19.954;2023-05-10T08:03:06;98935.08;;;16.71
75811;BMP280;64449;50.016;19.954;2023-05-10T08:05:31;98934.67;;;16.85
75811;BMP280;64449;50.016;19.954;2023-05-10T08:07:57;98934.21;;;17.00
75811;BMP280;64449;50.016;19.954;2023-05-10T08:10:23;98933.59;;;17.17
75811;BMP280;64449;50.016;19.954;2023-05-10T08:12:49;98933.73;;;17.36
75811;BMP280;64449;50.016;19.954;2023-05-10T08:15:14;98933.05;;;17.50
75811;BMP280;64449;50.016;19.954;2023-05-10T08:17:40;98930.65;;;17.67
75811;BMP280;64449;50.016;19.954;2023-05-10T08:20:06;98927.73;;;17.80
75811;BMP280;64449;50.016;19.954;2023-05-10T08:22:33;98924.11;;;17.94
75811;BMP280;64449;50.016;19.954;2023-05-10T08:24:58;98917.48;;;18.10
75811;BMP280;64449;50.016;19.954;2023-05-10T08:27:23;98916.52;;;18.22
75811;BMP280;64449;50.016;19.954;2023-05-10T08:29:49;98914.80;;;18.38
75811;BMP280;64449;50.016;19.954;2023-05-10T08:32:14;98916.67;;;18.52
75811;BMP280;64449;50.016;19.954;2023-05-10T08:34:40;98915.03;;;18.69
75811;BMP280;64449;50.016;19.954;2023-05-10T08:37:05;98912.30;;;18.83
75811;BMP280;64449;50.016;19.954;2023-05-10T08:39:34;98915.08;;;18.98
75811;BMP280;64449;50.016;19.954;2023-05-10T08:42:02;98916.83;;;19.17
75811;BMP280;64449;50.016;19.954;2023-05-10T08:44:31;98919.31;;;19.32
75811;BMP280;64449;50.016;19.954;2023-05-10T08:46:57;98912.56;;;19.46
75811;BMP280;64449;50.016;19.954;2023-05-10T08:49:27;98909.36;;;19.60
75811;BMP280;64449;50.016;19.954;2023-05-10T08:51:55;98907.55;;;19.67
75811;BMP280;64449;50.016;19.954;2023-05-10T08:54:23;98906.62;;;19.72
75811;BMP280;64449;50.016;19.954;2023-05-10T08:56:49;98905.64;;;19.79
75811;BMP280;64449;50.016;19.954;2023-05-10T08:59:15;98907.23;;;19.91
75811;BMP280;64449;50.016;19.954;2023-05-10T09:01:42;98905.46;;;19.93
75811;BMP280;64449;50.016;19.954;2023-05-10T09:04:09;98909.40;;;20.02
75811;BMP280;64449;50.016;19.954;2023-05-10T09:06:34;98901.30;;;20.15
75811;BMP280;64449;50.016;19.954;2023-05-10T09:09:01;98898.19;;;20.28
75811;BMP280;64449;50.016;19.954;2023-05-10T09:11:27;98899.64;;;20.39
75811;BMP280;64449;50.016;19.954;2023-05-10T09:13:54;98902.25;;;20.48
75811;BMP280;64449;50.016;19.954;2023-05-10T09:16:20;98899.33;;;20.57
75811;BMP280;64449;50.016;19.954;2023-05-10T09:18:46;98901.08;;;20.68
75811;BMP280;64449;50.016;19.954;2023-05-10T09:21:12;98900.77;;;20.80
75811;BMP280;64449;50.016;19.954;2023-05-10T09:23:37;98900.98;;;20.97
75811;BMP280;64449;50.016;19.954;2023-05-10T09:26:06;98902.71;;;21.14
75811;BMP280;64449;50.016;19.954;2023-05-10T09:28:33;98904.17;;;21.22
75811;BMP280;64449;50.016;19.954;2023-05-10T09:30:59;98907.35;;;21.28
75811;BMP280;64449;50.016;19.954;2023-05-10T09:33:25;98908.58;;;21.36
75811;BMP280;64449;50.016;19.954;2023-05-10T09:35:51;98907.15;;;21.44
75811;BMP280;64449;50.016;19.954;2023-05-10T09:38:17;98903.04;;;21.58
75811;BMP280;64449;50.016;19.954;2023-05-10T09:40:51;98901.34;;;21.72
75811;BMP280;64449;50.016;19.954;2023-05-10T09:43:19;98901.39;;;21.91
75811;BMP280;64449;50.016;19.954;2023-05-10T09:45:48;98900.23;;;22.02
75811;BMP280;64449;50.016;19.954;2023-05-10T09:48:15;98899.58;;;22.13
75811;BMP280;64449;50.016;19.954;2023-05-10T09:50:41;98899.66;;;22.13
75811;BMP280;64449;50.016;19.954;2023-05-10T09:53:07;98901.71;;;22.17
75811;BMP280;64449;50.016;19.954;2023-05-10T09:55:39;98893.48;;;22.26
75811;BMP280;64449;50.016;19.954;2023-05-10T09:58:06;98889.96;;;22.37
75811;BMP280;64449;50.016;19.954;2023-05-10T10:00:43;98889.42;;;22.47
75811;BMP280;64449;50.016;19.954;2023-05-10T10:03:17;98884.31;;;22.54
75811;BMP280;64449;50.016;19.954;2023-05-10T10:05:43;98888.25;;;22.67
75811;BMP280;64449;50.016;19.954;2023-05-10T10:08:09;98887.98;;;22.73
75811;BMP280;64449;50.016;19.954;2023-05-10T10:10:36;98884.45;;;22.75
75811;BMP280;64449;50.016;19.954;2023-05-10T10:13:02;98879.03;;;22.86
75811;BMP280;64449;50.016;19.954;2023-05-10T10:15:28;98872.31;;;23.03
75811;BMP280;64449;50.016;19.954;2023-05-10T10:17:53;98870.71;;;23.20
75811;BMP280;64449;50.016;19.954;2023-05-10T10:20:20;98872.77;;;23.42
75811;BMP280;64449;50.016;19.954;2023-05-10T10:22:47;98868.20;;;23.61
75811;BMP280;64449;50.016;19.954;2023-05-10T10:25:14;98867.69;;;23.75
75811;BMP280;64449;50.016;19.954;2023-05-10T10:30:37;98866.05;;;23.78
75811;BMP280;64449;50.016;19.954;2023-05-10T10:35:49;98858.46;;;23.94
75811;BMP280;64449;50.016;19.954;2023-05-10T10:38:16;98853.89;;;24.04
75811;BMP280;64449;50.016;19.954;2023-05-10T10:40:42;98850.13;;;24.25
75811;BMP280;64449;50.016;19.954;2023-05-10T10:43:27;98846.27;;;24.51
75811;BMP280;64449;50.016;19.954;2023-05-10T10:46:12;98847.23;;;24.62
75811;BMP280;64449;50.016;19.954;2023-05-10T10:48:39;98846.34;;;24.78
75811;BMP280;64449;50.016;19.954;2023-05-10T10:51:04;98842.33;;;24.87
75811;BMP280;64449;50.016;19.954;2023-05-10T10:53:30;98837.98;;;24.94
75811;BMP280;64449;50.016;19.954;2023-05-10T10:56:09;98841.73;;;25.07
75811;BMP280;64449;50.016;19.954;2023-05-10T10:58:36;98839.95;;;25.26
75811;BMP280;64449;50.016;19.954;2023-05-10T11:01:14;98836.55;;;25.32
75811;BMP280;64449;50.016;19.954;2023-05-10T11:03:40;98825.98;;;25.50
75811;BMP280;64449;50.016;19.954;2023-05-10T11:06:06;98827.16;;;25.72
75811;BMP280;64449;50.016;19.954;2023-05-10T11:08:41;98830.00;;;25.88
75811;BMP280;64449;50.016;19.954;2023-05-10T11:11:09;98828.78;;;26.04
75811;BMP280;64449;50.016;19.954;2023-05-10T11:13:38;98828.58;;;26.03
75811;BMP280;64449;50.016;19.954;2023-05-10T11:16:55;98827.94;;;26.07
75811;BMP280;64449;50.016;19.954;2023-05-10T11:19:04;98817.20;;;26.24
75811;BMP280;64449;50.016;19.954;2023-05-10T11:21:30;98822.00;;;26.37
75811;BMP280;64449;50.016;19.954;2023-05-10T11:23:57;98821.16;;;26.48
75811;BMP280;64449;50.016;19.954;2023-05-10T11:26:34;98814.18;;;26.52
75811;BMP280;64449;50.016;19.954;2023-05-10T11:29:00;98820.63;;;26.66
75811;BMP280;64449;50.016;19.954;2023-05-10T11:31:27;98817.94;;;26.68
75811;BMP280;64449;50.016;19.954;2023-05-10T11:33:54;98819.70;;;26.71
75811;BMP280;64449;50.016;19.954;2023-05-10T11:36:27;98818.81;;;26.66
75811;BMP280;64449;50.016;19.954;2023-05-10T11:38:53;98816.54;;;26.63
75811;BMP280;64449;50.016;19.954;2023-05-10T11:41:20;98812.49;;;26.62
75811;BMP280;64449;50.016;19.954;2023-05-10T11:43:52;98811.44;;;26.67
75811;BMP280;64449;50.016;19.954;2023-05-10T11:46:22;98806.89;;;26.69
75811;BMP280;64449;50.016;19.954;2023-05-10T11:48:53;98808.48;;;26.54
75811;BMP280;64449;50.016;19.954;2023-05-10T11:51:21;98807.56;;;26.33
75811;BMP280;64449;50.016;19.954;2023-05-10T11:53:47;98807.59;;;26.20
75811;BMP280;64449;50.016;19.954;2023-05-10T11:56:12;98807.20;;;26.09
75811;BMP280;64449;50.016;19.954;2023-05-10T11:58:39;98804.48;;;26.00
75811;BMP280;64449;50.016;19.954;2023-05-10T12:01:06;98810.98;;;25.99
75811;BMP280;64449;50.016;19.954;2023-05-10T12:03:32;98808.90;;;25.91
75811;BMP280;64449;50.016;19.954;2023-05-10T12:06:00;98803.25;;;25.79
75811;BMP280;64449;50.016;19.954;2023-05-10T12:08:27;98804.18;;;25.69
75811;BMP280;64449;50.016;19.954;2023-05-10T12:11:03;98804.88;;;25.54
75811;BMP280;64449;50.016;19.954;2023-05-10T12:13:29;98798.05;;;25.42
75811;BMP280;64449;50.016;19.954;2023-05-10T12:15:58;98797.09;;;25.35
75811;BMP280;64449;50.016;19.954;2023-05-10T12:18:24;98796.77;;;25.34
75811;BMP280;64449;50.016;19.954;2023-05-10T12:20:53;98796.65;;;25.26
75811;BMP280;64449;50.016;19.954;2023-05-10T12:23:21;98794.34;;;25.28
75811;BMP280;64449;50.016;19.954;2023-05-10T12:25:47;98798.77;;;25.16
75811;BMP280;64449;50.016;19.954;2023-05-10T12:28:12;98793.52;;;25.05
75811;BMP280;64449;50.016;19.954;2023-05-10T12:30:38;98794.16;;;25.03
75811;BMP280;64449;50.016;19.954;2023-05-10T12:33:08;98793.30;;;25.02
75811;BMP280;64449;50.016;19.954;2023-05-10T12:35:47;98788.39;;;25.03
75811;BMP280;64449;50.016;19.954;2023-05-10T12:38:32;98787.64;;;25.01
75811;BMP280;64449;50.016;19.954;2023-05-10T12:40:59;98781.05;;;25.00
75811;BMP280;64449;50.016;19.954;2023-05-10T12:43:25;98780.19;;;24.95
75811;BMP280;64449;50.016;19.954;2023-05-10T12:45:50;98774.04;;;24.88
75811;BMP280;64449;50.016;19.954;2023-05-10T12:48:16;98774.79;;;24.87
75811;BMP280;64449;50.016;19.954;2023-05-10T12:50:41;98776.13;;;24.84
75811;BMP280;64449;50.016;19.954;2023-05-10T12:53:07;98767.78;;;24.87
75811;BMP280;64449;50.016;19.954;2023-05-10T12:55:32;98762.98;;;24.97
75811;BMP280;64449;50.016;19.954;2023-05-10T12:57:58;98761.01;;;25.10
75811;BMP280;64449;50.016;19.954;2023-05-10T13:00:23;98750.27;;;25.12
75811;BMP280;64449;50.016;19.954;2023-05-10T13:02:49;98755.92;;;25.16
75811;BMP280;64449;50.016;19.954;2023-05-10T13:05:14;98757.52;;;25.16
75811;BMP280;64449;50.016;19.954;2023-05-10T13:07:39;98761.59;;;25.10
75811;BMP280;64449;50.016;19.954;2023-05-10T13:10:06;98754.27;;;24.94
75811;BMP280;64449;50.016;19.954;2023-05-10T13:12:31;98748.48;;;24.94
75811;BMP280;64449;50.016;19.954;2023-05-10T13:14:57;98743.94;;;24.94
75811;BMP280;64449;50.016;19.954;2023-05-10T13:17:23;98737.44;;;24.88
75811;BMP280;64449;50.016;19.954;2023-05-10T13:19:48;98741.56;;;24.89
75811;BMP280;64449;50.016;19.954;2023-05-10T13:22:13;98747.65;;;24.85
75811;BMP280;64449;50.016;19.954;2023-05-10T13:24:39;98747.73;;;24.80
75811;BMP280;64449;50.016;19.954;2023-05-10T13:27:04;98746.27;;;24.76
75811;BMP280;64449;50.016;19.954;2023-05-10T13:29:30;98742.58;;;24.82
75811;BMP280;64449;50.016;19.954;2023-05-10T13:31:55;98743.23;;;24.87
75811;BMP280;64449;50.016;19.954;2023-05-10T13:34:21;98738.35;;;24.90
75811;BMP280;64449;50.016;19.954;2023-05-10T13:36:47;98733.08;;;24.83
75811;BMP280;64449;50.016;19.954;2023-05-10T13:39:14;98734.39;;;24.75
75811;BMP280;64449;50.016;19.954;2023-05-10T13:41:39;98729.50;;;24.69
75811;BMP280;64449;50.016;19.954;2023-05-10T13:44:05;98722.95;;;24.71
75811;BMP280;64449;50.016;19.954;2023-05-10T13:46:30;98721.67;;;24.71
75811;BMP280;64449;50.016;19.954;2023-05-10T13:48:56;98711.52;;;24.65
75811;BMP280;64449;50.016;19.954;2023-05-10T13:51:22;98721.88;;;24.58
75811;BMP280;64449;50.016;19.954;2023-05-10T13:53:48;98717.27;;;24.56
75811;BMP280;64449;50.016;19.954;2023-05-10T13:56:14;98713.65;;;24.55
75811;BMP280;64449;50.016;19.954;2023-05-10T13:58:39;98717.14;;;24.53
75811;BMP280;64449;50.016;19.954;2023-05-10T14:01:05;98713.50;;;24.42
75811;BMP280;64449;50.016;19.954;2023-05-10T14:03:30;98709.64;;;24.31
75811;BMP280;64449;50.016;19.954;2023-05-10T14:05:56;98709.00;;;24.34
75811;BMP280;64449;50.016;19.954;2023-05-10T14:08:21;98709.28;;;24.31
75811;BMP280;64449;50.016;19.954;2023-05-10T14:10:47;98706.59;;;24.26
75811;BMP280;64449;50.016;19.954;2023-05-10T14:13:14;98707.17;;;24.18
75811;BMP280;64449;50.016;19.954;2023-05-10T14:15:40;98708.08;;;24.07
75811;BMP280;64449;50.016;19.954;2023-05-10T14:18:06;98704.50;;;23.92
75811;BMP280;64449;50.016;19.954;2023-05-10T14:20:32;98699.06;;;23.77